Time;durP1;ratioP1;P1;durP2;ratioP2;P2;SDS_P1;SDS_P2;PMS_P1;PMS_P2;Temp;Humidity;BMP_temperature;BMP_pressure;BME280_temperature;BME280_humidity;BME280_pressure;Samples;Min_cycle;Max_cycle;Signal;HPM_P1;HPM_P2
2024/01/26 00:01:23;;;;;;;17.40;4.90;;;;;;;;;;103562;1295;545122;-68
2024/01/26 00:05:05;;;;;;;18.40;3.40;;;;;;;;;;103354;1291;545169;-68
2024/01/26 00:08:42;;;;;;;15.60;3.80;;;;;;;;;;103496;1292;544837;-69
2024/01/26 00:12:19;;;;;;;15.60;4.40;;;;;;;;;;103363;1292;545313;-69
2024/01/26 00:15:56;;;;;;;13.80;4.00;;;;;;;;;;103425;1291;545093;-69
2024/01/26 00:19:34;;;;;;;16.30;3.40;;;;;;;;;;103439;1292;544914;-69
2024/01/26 00:23:11;;;;;;;14.30;3.60;;;;;;;;;;103497;1289;544882;-69
2024/01/26 00:27:08;;;;;;;13.20;3.30;;;;;;;;;;104497;1293;548006;-67
2024/01/26 00:30:27;;;;;;;14.90;3.50;;;;;;;;;;103618;1292;545379;-68
2024/01/26 00:34:04;;;;;;;15.10;3.70;;;;;;;;;;103490;1288;544975;-68
2024/01/26 00:37:42;;;;;;;15.60;3.90;;;;;;;;;;103497;1302;545030;-68
2024/01/26 00:41:19;;;;;;;12.90;4.00;;;;;;;;;;103529;1289;545753;-69
2024/01/26 00:44:57;;;;;;;15.10;4.60;;;;;;;;;;103502;1289;544947;-68
2024/01/26 00:48:34;;;;;;;15.20;3.40;;;;;;;;;;103516;1291;545566;-69
2024/01/26 00:52:13;;;;;;;14.40;2.80;;;;;;;;;;103641;1292;544774;-68
2024/01/26 00:55:49;;;;;;;14.30;3.30;;;;;;;;;;103484;1289;544827;-69
2024/01/26 00:59:26;;;;;;;14.60;3.40;;;;;;;;;;103600;1290;545355;-68
2024/01/26 01:03:04;;;;;;;16.40;3.30;;;;;;;;;;103466;1291;545028;-69
2024/01/26 01:06:41;;;;;;;12.30;2.40;;;;;;;;;;103515;1295;544860;-69
2024/01/26 01:10:19;;;;;;;10.90;2.60;;;;;;;;;;103619;1290;545392;-69
2024/01/26 01:13:56;;;;;;;12.10;2.80;;;;;;;;;;103587;1292;545813;-69
2024/01/26 01:17:33;;;;;;;11.50;2.40;;;;;;;;;;103546;1289;546696;-69
2024/01/26 01:21:11;;;;;;;13.50;2.90;;;;;;;;;;103637;1290;545398;-69
2024/01/26 01:24:48;;;;;;;14.00;3.20;;;;;;;;;;103606;1288;545504;-69
2024/01/26 01:28:26;;;;;;;14.40;3.40;;;;;;;;;;103619;1289;545677;-69
2024/01/26 01:32:04;;;;;;;15.00;3.20;;;;;;;;;;103491;1289;545912;-68
2024/01/26 01:35:41;;;;;;;12.70;2.80;;;;;;;;;;103577;1289;544903;-69
2024/01/26 01:39:18;;;;;;;12.90;2.70;;;;;;;;;;103619;1289;544774;-69
2024/01/26 01:42:56;;;;;;;12.60;3.00;;;;;;;;;;103752;1290;545443;-68
2024/01/26 01:46:33;;;;;;;13.60;3.30;;;;;;;;;;103383;1291;545334;-68
2024/01/26 01:50:11;;;;;;;13.80;2.90;;;;;;;;;;103602;1290;544830;-69
2024/01/26 01:53:48;;;;;;;12.70;3.10;;;;;;;;;;103483;1289;545964;-68
2024/01/26 01:57:26;;;;;;;14.30;2.70;;;;;;;;;;103577;1295;545326;-69
2024/01/26 02:01:02;;;;;;;15.50;2.80;;;;;;;;;;103529;1295;545356;-69
2024/01/26 02:04:40;;;;;;;11.30;2.50;;;;;;;;;;103552;1290;544846;-69
2024/01/26 02:08:17;;;;;;;14.10;2.60;;;;;;;;;;103724;1292;544896;-69
2024/01/26 02:11:56;;;;;;;12.60;2.50;;;;;;;;;;103866;1296;544869;-69
2024/01/26 02:15:32;;;;;;;11.90;3.10;;;;;;;;;;103405;1291;545894;-68
2024/01/26 02:19:14;;;;;;;14.70;2.60;;;;;;;;;;103548;1289;545488;-68
2024/01/26 02:22:47;;;;;;;13.00;2.60;;;;;;;;;;103581;1290;544815;-68
2024/01/26 02:26:25;;;;;;;13.70;3.00;;;;;;;;;;103528;1289;545387;-69
2024/01/26 02:30:03;;;;;;;14.30;2.80;;;;;;;;;;103549;1289;545674;-69
2024/01/26 02:33:40;;;;;;;13.90;3.30;;;;;;;;;;103561;1289;545330;-69
2024/01/26 02:37:17;;;;;;;11.30;2.80;;;;;;;;;;103389;1295;544984;-68
2024/01/26 02:40:55;;;;;;;13.80;3.10;;;;;;;;;;103838;1289;544913;-69
2024/01/26 02:44:33;;;;;;;17.30;3.20;;;;;;;;;;103387;1291;545331;-69
2024/01/26 02:48:10;;;;;;;11.50;2.80;;;;;;;;;;103453;1290;544969;-68
2024/01/26 02:51:48;;;;;;;16.70;3.80;;;;;;;;;;103525;1290;545966;-69
2024/01/26 02:55:25;;;;;;;13.30;3.50;;;;;;;;;;103555;1290;546310;-68
2024/01/26 02:59:02;;;;;;;12.20;2.90;;;;;;;;;;103644;1292;544941;-69
2024/01/26 03:02:39;;;;;;;13.70;2.90;;;;;;;;;;103551;1291;545022;-68
2024/01/26 03:06:18;;;;;;;14.10;2.90;;;;;;;;;;103630;1289;545096;-68
2024/01/26 03:09:55;;;;;;;15.50;3.30;;;;;;;;;;103667;1302;545520;-69
2024/01/26 03:13:32;;;;;;;18.20;3.60;;;;;;;;;;103616;1289;545051;-68
2024/01/26 03:17:10;;;;;;;14.00;3.00;;;;;;;;;;103565;1289;546318;-68
2024/01/26 03:20:47;;;;;;;17.90;3.30;;;;;;;;;;103623;1290;544714;-69
2024/01/26 03:24:24;;;;;;;14.20;3.20;;;;;;;;;;103667;1289;545163;-69
2024/01/26 03:28:02;;;;;;;13.20;3.20;;;;;;;;;;103587;1289;544849;-68
2024/01/26 03:31:39;;;;;;;12.40;3.10;;;;;;;;;;103747;1288;545163;-68
2024/01/26 03:35:17;;;;;;;17.00;3.80;;;;;;;;;;103564;1294;545380;-69
2024/01/26 03:38:54;;;;;;;15.00;3.50;;;;;;;;;;103667;1292;544774;-69
2024/01/26 03:42:32;;;;;;;16.90;3.10;;;;;;;;;;103506;1295;545002;-69
2024/01/26 03:46:10;;;;;;;14.90;3.40;;;;;;;;;;103432;1291;545032;-68
2024/01/26 03:49:47;;;;;;;16.70;3.70;;;;;;;;;;103780;1292;545061;-68
2024/01/26 03:53:24;;;;;;;17.40;3.80;;;;;;;;;;103585;1290;546166;-69
2024/01/26 03:57:02;;;;;;;15.50;4.10;;;;;;;;;;103616;1290;544762;-68
2024/01/26 04:00:39;;;;;;;18.00;3.90;;;;;;;;;;103559;1302;545396;-68
2024/01/26 04:04:16;;;;;;;17.50;3.80;;;;;;;;;;103579;1289;545851;-68
2024/01/26 04:07:54;;;;;;;17.00;3.90;;;;;;;;;;103616;1295;545051;-68
2024/01/26 04:11:31;;;;;;;14.80;3.80;;;;;;;;;;103951;1285;546016;-68
2024/01/26 04:15:09;;;;;;;15.90;3.70;;;;;;;;;;103442;1291;546465;-69
2024/01/26 04:18:47;;;;;;;15.90;3.70;;;;;;;;;;103543;1292;545138;-69
2024/01/26 04:22:24;;;;;;;13.80;3.30;;;;;;;;;;103533;1289;544778;-68
2024/01/26 04:26:02;;;;;;;14.00;3.30;;;;;;;;;;103571;1289;545010;-68
2024/01/26 04:29:45;;;;;;;24.30;4.40;;;;;;;;;;103318;1295;547873;-69
2024/01/26 04:33:16;;;;;;;15.80;3.50;;;;;;;;;;103629;1290;544985;-69
2024/01/26 04:36:53;;;;;;;16.00;3.70;;;;;;;;;;103401;1291;544829;-68
2024/01/26 04:40:31;;;;;;;15.60;3.60;;;;;;;;;;103524;1292;545999;-68
2024/01/26 04:44:09;;;;;;;15.60;3.60;;;;;;;;;;103461;1290;544906;-68
2024/01/26 04:47:46;;;;;;;15.00;4.20;;;;;;;;;;103588;1290;544680;-68
2024/01/26 04:51:23;;;;;;;16.40;3.90;;;;;;;;;;103539;1295;545302;-68
2024/01/26 04:55:01;;;;;;;16.00;4.00;;;;;;;;;;103589;1290;544802;-68
2024/01/26 04:58:39;;;;;;;18.70;4.10;;;;;;;;;;103423;1295;544794;-68
2024/01/26 05:02:16;;;;;;;13.00;3.20;;;;;;;;;;103752;1289;545446;-68
2024/01/26 05:05:54;;;;;;;19.00;4.50;;;;;;;;;;103562;1291;545391;-68
2024/01/26 05:09:31;;;;;;;17.20;3.90;;;;;;;;;;103578;1294;545452;-68
2024/01/26 05:13:09;;;;;;;18.00;4.50;;;;;;;;;;103360;1291;545340;-68
2024/01/26 05:16:46;;;;;;;19.40;3.60;;;;;;;;;;103546;1289;545069;-68
2024/01/26 05:20:23;;;;;;;17.60;4.40;;;;;;;;;;103587;1291;544971;-68
2024/01/26 05:24:00;;;;;;;15.80;3.70;;;;;;;;;;103530;1289;545331;-69
2024/01/26 05:27:40;;;;;;;17.30;4.40;;;;;;;;;;103378;1295;544822;-68
2024/01/26 05:31:15;;;;;;;20.10;5.10;;;;;;;;;;103945;1286;544923;-68
2024/01/26 05:34:53;;;;;;;17.50;4.60;;;;;;;;;;103390;1291;544908;-68
2024/01/26 05:38:31;;;;;;;15.60;3.90;;;;;;;;;;103650;1292;544980;-68
2024/01/26 05:42:08;;;;;;;16.00;4.30;;;;;;;;;;103611;1289;544780;-68
2024/01/26 05:45:46;;;;;;;16.20;4.70;;;;;;;;;;103495;1292;545302;-68
2024/01/26 05:49:25;;;;;;;20.40;5.40;;;;;;;;;;103392;1295;544717;-68
2024/01/26 05:53:01;;;;;;;18.20;4.90;;;;;;;;;;103610;1289;545951;-68
2024/01/26 05:56:39;;;;;;;18.30;5.70;;;;;;;;;;103395;1291;545487;-68
2024/01/26 06:00:16;;;;;;;21.00;7.60;;;;;;;;;;103541;1290;544924;-68
2024/01/26 06:03:53;;;;;;;22.20;7.40;;;;;;;;;;103462;1291;546027;-69
2024/01/26 06:07:26;;;;;;;20.90;7.10;;;;;;;;;;103586;1292;544799;-68
2024/01/26 06:11:09;;;;;;;25.70;9.50;;;;;;;;;;103497;1292;545526;-68
2024/01/26 06:14:45;;;;;;;30.80;12.20;;;;;;;;;;103520;1292;545494;-68
2024/01/26 06:18:23;;;;;;;34.80;12.50;;;;;;;;;;103418;1295;544958;-68
2024/01/26 06:22:00;;;;;;;26.70;12.20;;;;;;;;;;103577;1289;545341;-68
2024/01/26 06:25:38;;;;;;;26.70;11.10;;;;;;;;;;103669;1293;544780;-68
2024/01/26 06:29:15;;;;;;;22.10;10.10;;;;;;;;;;103667;1289;544711;-68
2024/01/26 06:32:52;;;;;;;27.00;10.80;;;;;;;;;;103611;1288;544992;-68
2024/01/26 06:36:30;;;;;;;27.00;10.80;;;;;;;;;;103533;1292;545436;-68
2024/01/26 06:40:12;;;;;;;22.70;8.60;;;;;;;;;;103369;1294;544952;-68
2024/01/26 06:43:51;;;;;;;25.40;8.30;;;;;;;;;;103571;1290;544875;-68
2024/01/26 06:47:23;;;;;;;25.50;8.80;;;;;;;;;;103401;1291;545128;-68
2024/01/26 06:51:00;;;;;;;22.10;7.90;;;;;;;;;;103487;1290;545724;-68
2024/01/26 06:54:38;;;;;;;22.30;7.60;;;;;;;;;;103464;1291;544852;-68
2024/01/26 06:58:14;;;;;;;26.40;7.70;;;;;;;;;;103568;1293;544760;-68
2024/01/26 07:01:53;;;;;;;20.10;6.90;;;;;;;;;;103517;1289;545650;-68
2024/01/26 07:05:30;;;;;;;25.10;7.40;;;;;;;;;;103450;1292;544742;-68
2024/01/26 07:09:08;;;;;;;21.80;6.50;;;;;;;;;;103422;1295;544832;-68
2024/01/26 07:12:44;;;;;;;24.20;5.40;;;;;;;;;;103539;1295;545119;-69
2024/01/26 07:16:22;;;;;;;21.70;5.30;;;;;;;;;;103374;1291;545626;-68
2024/01/26 07:19:59;;;;;;;21.60;6.10;;;;;;;;;;103449;1292;545051;-68
2024/01/26 07:23:40;;;;;;;26.30;8.00;;;;;;;;;;103515;1290;545064;-68
2024/01/26 07:27:14;;;;;;;28.60;9.90;;;;;;;;;;103547;1289;544790;-68
2024/01/26 07:30:52;;;;;;;24.30;8.40;;;;;;;;;;103414;1295;544910;-68
2024/01/26 07:34:29;;;;;;;23.80;8.20;;;;;;;;;;103673;1289;544963;-69
2024/01/26 07:38:08;;;;;;;28.70;8.00;;;;;;;;;;104117;1285;545078;-68
2024/01/26 07:41:44;;;;;;;21.80;8.00;;;;;;;;;;103635;1289;544703;-68
2024/01/26 07:45:22;;;;;;;20.70;7.60;;;;;;;;;;103377;1295;546020;-69
2024/01/26 07:49:00;;;;;;;34.20;12.80;;;;;;;;;;104919;1294;544848;-69
2024/01/26 07:52:33;;;;;;;34.40;15.40;;;;;;;;;;103714;1290;545997;-69
2024/01/26 07:56:14;;;;;;;51.30;21.80;;;;;;;;;;103636;1289;545597;-69
2024/01/26 07:59:51;;;;;;;47.80;19.10;;;;;;;;;;103436;1293;545474;-69
2024/01/26 08:03:31;;;;;;;36.90;14.70;;;;;;;;;;103826;1292;544966;-69
2024/01/26 08:07:07;;;;;;;40.30;18.50;;;;;;;;;;103434;1290;545633;-69
2024/01/26 08:10:44;;;;;;;28.20;11.40;;;;;;;;;;103571;1296;545049;-69
2024/01/26 08:14:21;;;;;;;19.60;7.40;;;;;;;;;;103397;1292;545146;-69
2024/01/26 08:17:59;;;;;;;18.70;6.50;;;;;;;;;;103602;1289;544934;-69
2024/01/26 08:21:37;;;;;;;18.70;6.60;;;;;;;;;;103593;1288;544750;-69
2024/01/26 08:25:14;;;;;;;18.40;8.60;;;;;;;;;;103656;1289;544953;-69
2024/01/26 08:28:51;;;;;;;21.30;8.80;;;;;;;;;;103501;1294;545001;-69
2024/01/26 08:32:29;;;;;;;19.10;7.50;;;;;;;;;;103544;1292;545064;-69
2024/01/26 08:36:02;;;;;;;19.50;6.60;;;;;;;;;;103390;1291;546116;-69
2024/01/26 08:39:44;;;;;;;17.20;7.60;;;;;;;;;;103753;1289;544801;-69
2024/01/26 08:43:21;;;;;;;18.10;7.60;;;;;;;;;;103596;1289;545506;-69
2024/01/26 08:46:58;;;;;;;19.40;9.20;;;;;;;;;;103606;1290;545305;-69
2024/01/26 08:50:36;;;;;;;18.30;9.60;;;;;;;;;;103444;1289;545599;-69
2024/01/26 08:54:14;;;;;;;18.10;7.30;;;;;;;;;;103689;1289;545503;-69
2024/01/26 08:57:51;;;;;;;19.80;9.20;;;;;;;;;;103762;1288;545126;-69
2024/01/26 09:01:29;;;;;;;17.30;8.40;;;;;;;;;;103586;1288;544909;-70
2024/01/26 09:05:06;;;;;;;18.80;9.20;;;;;;;;;;103523;1291;546322;-69
2024/01/26 09:08:44;;;;;;;22.90;11.10;;;;;;;;;;103570;1292;545943;-69
2024/01/26 09:12:23;;;;;;;23.10;11.20;;;;;;;;;;103485;1291;544909;-70
2024/01/26 09:15:59;;;;;;;21.90;11.90;;;;;;;;;;103590;1289;545312;-69
2024/01/26 09:19:36;;;;;;;20.00;9.80;;;;;;;;;;103482;1303;544821;-69
2024/01/26 09:23:13;;;;;;;18.50;8.20;;;;;;;;;;103738;1289;544992;-69
2024/01/26 09:26:52;;;;;;;17.30;7.90;;;;;;;;;;103408;1291;545544;-69
2024/01/26 09:30:28;;;;;;;17.80;9.00;;;;;;;;;;103495;1290;545537;-70
2024/01/26 09:34:06;;;;;;;21.40;9.80;;;;;;;;;;103369;1291;545663;-67
2024/01/26 09:37:43;;;;;;;24.50;11.70;;;;;;;;;;103581;1290;545803;-69
2024/01/26 09:41:20;;;;;;;24.30;11.50;;;;;;;;;;103513;1290;544964;-69
2024/01/26 09:45:00;;;;;;;21.70;10.50;;;;;;;;;;103513;1289;544791;-69
2024/01/26 09:48:39;;;;;;;22.20;10.70;;;;;;;;;;103382;1292;544775;-69
2024/01/26 09:52:13;;;;;;;21.70;10.30;;;;;;;;;;104028;1284;545010;-69
2024/01/26 09:55:51;;;;;;;20.90;8.80;;;;;;;;;;103649;1290;544947;-69
2024/01/26 09:59:27;;;;;;;18.30;9.50;;;;;;;;;;104476;1292;545426;-69
2024/01/26 10:03:05;;;;;;;16.40;6.30;;;;;;;;;;103544;1289;544965;-70
2024/01/26 10:06:44;;;;;;;13.10;5.60;;;;;;;;;;103647;1292;544747;-70
2024/01/26 10:10:20;;;;;;;14.20;6.20;;;;;;;;;;103425;1302;545397;-70
2024/01/26 10:13:53;;;;;;;14.90;5.80;;;;;;;;;;103639;1289;545227;-68
2024/01/26 10:17:31;;;;;;;14.10;5.40;;;;;;;;;;103510;1289;545019;-69
2024/01/26 10:21:14;;;;;;;13.60;5.50;;;;;;;;;;103407;1291;544972;-68
2024/01/26 10:24:51;;;;;;;14.00;5.10;;;;;;;;;;103443;1292;545064;-70
2024/01/26 10:28:28;;;;;;;14.20;5.70;;;;;;;;;;103351;1291;545673;-68
2024/01/26 10:32:08;;;;;;;14.20;4.60;;;;;;;;;;103827;1289;545422;-68
2024/01/26 10:35:43;;;;;;;15.10;4.90;;;;;;;;;;103956;1286;546294;-68
2024/01/26 10:39:22;;;;;;;16.40;6.00;;;;;;;;;;103380;1295;544741;-68
2024/01/26 10:42:57;;;;;;;15.70;5.20;;;;;;;;;;104280;1286;544967;-68
2024/01/26 10:46:37;;;;;;;15.10;5.30;;;;;;;;;;103434;1291;544974;-68
2024/01/26 10:50:12;;;;;;;18.70;6.80;;;;;;;;;;103623;1301;544997;-70
2024/01/26 10:53:51;;;;;;;17.60;6.30;;;;;;;;;;103550;1289;545487;-68
2024/01/26 10:57:27;;;;;;;14.90;5.90;;;;;;;;;;103596;1289;544709;-68
2024/01/26 11:01:05;;;;;;;15.10;6.70;;;;;;;;;;103390;1292;544710;-67
2024/01/26 11:04:43;;;;;;;13.40;6.00;;;;;;;;;;103558;1289;545570;-70
2024/01/26 11:08:22;;;;;;;14.20;4.80;;;;;;;;;;103479;1290;545254;-68
2024/01/26 11:11:57;;;;;;;14.50;5.20;;;;;;;;;;103638;1290;544733;-68
2024/01/26 11:15:35;;;;;;;16.90;5.60;;;;;;;;;;103540;1295;544999;-71
2024/01/26 11:19:22;;;;;;;13.10;5.00;;;;;;;;;;103578;1302;545104;-68
2024/01/26 11:23:00;;;;;;;14.90;4.90;;;;;;;;;;103453;1289;544870;-68
2024/01/26 11:26:27;;;;;;;13.90;5.20;;;;;;;;;;103361;1292;544858;-68
2024/01/26 11:30:05;;;;;;;14.80;5.90;;;;;;;;;;103552;1292;545018;-69
2024/01/26 11:33:42;;;;;;;16.90;6.50;;;;;;;;;;103566;1290;544900;-70
2024/01/26 11:37:20;;;;;;;14.90;5.80;;;;;;;;;;103591;1290;544950;-68
2024/01/26 11:41:00;;;;;;;13.70;5.60;;;;;;;;;;103459;1295;544935;-70
2024/01/26 11:44:39;;;;;;;14.40;5.00;;;;;;;;;;103499;1289;544804;-70
2024/01/26 11:48:13;;;;;;;25.10;8.00;;;;;;;;;;103485;1291;545464;-71
2024/01/26 11:51:50;;;;;;;17.10;6.00;;;;;;;;;;103564;1294;544843;-71
2024/01/26 11:55:28;;;;;;;15.20;6.30;;;;;;;;;;103889;1287;545565;-70
2024/01/26 11:59:06;;;;;;;26.00;10.60;;;;;;;;;;103615;1290;545379;-68
2024/01/26 12:02:41;;;;;;;23.00;10.10;;;;;;;;;;103543;1289;544864;-68
2024/01/26 12:06:19;;;;;;;20.80;9.70;;;;;;;;;;103702;1289;545941;-69
2024/01/26 12:09:58;;;;;;;17.50;7.20;;;;;;;;;;103388;1291;545008;-71
2024/01/26 12:13:30;;;;;;;17.50;6.80;;;;;;;;;;104012;1286;544949;-68
2024/01/26 12:17:11;;;;;;;18.90;6.80;;;;;;;;;;103404;1289;544931;-69
2024/01/26 12:20:52;;;;;;;15.90;5.40;;;;;;;;;;103498;1292;544787;-68
2024/01/26 12:24:26;;;;;;;19.20;6.70;;;;;;;;;;103602;1289;544727;-68
2024/01/26 12:28:05;;;;;;;16.90;7.10;;;;;;;;;;103597;1289;544825;-68
2024/01/26 12:31:41;;;;;;;19.20;7.00;;;;;;;;;;103454;1292;545915;-70
2024/01/26 12:35:19;;;;;;;17.00;6.80;;;;;;;;;;103534;1289;545832;-68
2024/01/26 12:38:57;;;;;;;20.80;8.40;;;;;;;;;;103362;1291;545641;-71
2024/01/26 12:42:34;;;;;;;17.20;6.70;;;;;;;;;;103626;1300;545450;-68
2024/01/26 12:46:13;;;;;;;15.50;6.30;;;;;;;;;;103553;1291;545629;-68
2024/01/26 12:49:45;;;;;;;14.50;5.90;;;;;;;;;;103537;1289;545717;-68
2024/01/26 12:53:26;;;;;;;18.00;6.10;;;;;;;;;;103413;1289;545237;-68
2024/01/26 12:57:04;;;;;;;19.90;6.10;;;;;;;;;;103552;1289;544734;-68
2024/01/26 13:00:41;;;;;;;19.00;6.00;;;;;;;;;;103404;1291;544715;-68
2024/01/26 13:04:19;;;;;;;16.90;6.60;;;;;;;;;;103615;1289;544785;-68
2024/01/26 13:07:56;;;;;;;20.40;7.60;;;;;;;;;;103413;1290;545045;-68
2024/01/26 13:11:34;;;;;;;25.10;8.70;;;;;;;;;;103584;1289;545034;-70
2024/01/26 13:15:07;;;;;;;22.70;8.80;;;;;;;;;;103708;1289;544795;-70
2024/01/26 13:18:49;;;;;;;23.60;9.40;;;;;;;;;;103557;1289;544993;-70
2024/01/26 13:22:26;;;;;;;18.70;8.10;;;;;;;;;;103569;1292;545676;-68
2024/01/26 13:26:04;;;;;;;17.40;7.20;;;;;;;;;;103588;1288;544779;-69
2024/01/26 13:29:41;;;;;;;21.10;9.70;;;;;;;;;;103682;1289;544768;-70
2024/01/26 13:33:19;;;;;;;22.80;10.30;;;;;;;;;;104058;1296;545000;-70
2024/01/26 13:36:56;;;;;;;16.60;6.90;;;;;;;;;;103526;1290;544872;-70
2024/01/26 13:40:33;;;;;;;17.60;7.30;;;;;;;;;;103624;1289;544991;-69
2024/01/26 13:44:10;;;;;;;18.50;7.60;;;;;;;;;;103796;1292;545030;-69
2024/01/26 13:47:44;;;;;;;18.40;7.10;;;;;;;;;;103548;1289;545880;-68
2024/01/26 13:51:25;;;;;;;15.00;6.40;;;;;;;;;;103419;1291;545025;-69
2024/01/26 13:55:04;;;;;;;21.70;7.90;;;;;;;;;;103702;1289;544917;-70
2024/01/26 13:58:41;;;;;;;17.80;7.30;;;;;;;;;;103453;1291;544813;-70
2024/01/26 14:02:18;;;;;;;18.00;7.70;;;;;;;;;;103508;1289;545552;-70
2024/01/26 14:05:55;;;;;;;24.30;10.90;;;;;;;;;;103481;1289;544941;-70
2024/01/26 14:09:32;;;;;;;22.60;10.90;;;;;;;;;;103548;1289;544756;-69
2024/01/26 14:13:11;;;;;;;26.60;13.50;;;;;;;;;;103585;1292;544701;-69
2024/01/26 14:16:47;;;;;;;22.20;10.30;;;;;;;;;;103765;1289;545314;-69
2024/01/26 14:20:27;;;;;;;26.40;11.70;;;;;;;;;;103573;1289;544920;-70
2024/01/26 14:24:04;;;;;;;34.20;15.40;;;;;;;;;;103854;1292;544957;-71
2024/01/26 14:27:39;;;;;;;26.00;10.90;;;;;;;;;;103545;1289;545004;-69
2024/01/26 14:31:17;;;;;;;22.90;10.10;;;;;;;;;;103323;1291;545181;-69
2024/01/26 14:34:55;;;;;;;21.30;9.00;;;;;;;;;;103498;1296;544797;-69
2024/01/26 14:38:32;;;;;;;18.60;7.60;;;;;;;;;;103562;1289;544966;-70
2024/01/26 14:42:06;;;;;;;17.10;7.90;;;;;;;;;;103663;1289;544774;-70
2024/01/26 14:45:47;;;;;;;14.50;6.10;;;;;;;;;;103591;1292;544996;-69
2024/01/26 14:49:26;;;;;;;16.00;6.40;;;;;;;;;;103519;1292;545274;-69
2024/01/26 14:53:02;;;;;;;21.00;8.50;;;;;;;;;;103379;1295;544810;-69
2024/01/26 14:56:41;;;;;;;17.40;7.70;;;;;;;;;;103643;1289;545035;-70
2024/01/26 15:00:17;;;;;;;24.10;12.60;;;;;;;;;;103413;1291;544695;-70
2024/01/26 15:03:55;;;;;;;20.80;10.50;;;;;;;;;;103640;1296;544913;-70
2024/01/26 15:07:32;;;;;;;20.90;10.10;;;;;;;;;;103426;1291;545868;-71
2024/01/26 15:11:09;;;;;;;17.60;8.60;;;;;;;;;;103596;1289;544586;-70
2024/01/26 15:14:47;;;;;;;29.30;14.40;;;;;;;;;;103548;1289;544993;-69
2024/01/26 15:18:24;;;;;;;24.30;11.30;;;;;;;;;;103606;1290;545010;-69
2024/01/26 15:22:02;;;;;;;15.60;8.10;;;;;;;;;;103264;1291;545339;-70
2024/01/26 15:25:39;;;;;;;20.40;8.70;;;;;;;;;;103576;1289;544970;-69
2024/01/26 15:29:16;;;;;;;17.20;8.90;;;;;;;;;;103448;1295;544801;-68
2024/01/26 15:32:54;;;;;;;21.00;10.10;;;;;;;;;;103595;1292;545024;-70
2024/01/26 15:36:32;;;;;;;22.40;10.30;;;;;;;;;;103534;1289;545443;-70
2024/01/26 15:40:14;;;;;;;30.30;12.20;;;;;;;;;;103412;1291;544835;-69
2024/01/26 15:43:47;;;;;;;35.80;14.60;;;;;;;;;;103519;1291;545274;-69
2024/01/26 15:47:20;;;;;;;27.60;14.30;;;;;;;;;;103642;1292;545409;-69
2024/01/26 15:51:02;;;;;;;20.70;11.00;;;;;;;;;;103515;1291;545539;-69
2024/01/26 15:54:35;;;;;;;18.50;10.70;;;;;;;;;;103509;1300;544980;-69
2024/01/26 15:58:17;;;;;;;20.30;10.70;;;;;;;;;;103419;1291;545634;-69
2024/01/26 16:01:53;;;;;;;25.30;12.30;;;;;;;;;;103549;1289;545313;-69
2024/01/26 16:05:32;;;;;;;27.70;12.60;;;;;;;;;;103699;1289;544846;-69
2024/01/26 16:09:09;;;;;;;26.50;12.20;;;;;;;;;;103502;1292;544963;-68
2024/01/26 16:12:47;;;;;;;28.90;14.70;;;;;;;;;;103388;1291;544862;-69
2024/01/26 16:16:24;;;;;;;27.10;12.30;;;;;;;;;;103594;1296;544788;-70
2024/01/26 16:20:02;;;;;;;28.00;15.60;;;;;;;;;;103526;1291;545402;-70
2024/01/26 16:23:39;;;;;;;22.20;10.90;;;;;;;;;;103602;1299;545959;-69
2024/01/26 16:27:17;;;;;;;13.40;7.50;;;;;;;;;;103650;1296;544769;-70
2024/01/26 16:30:55;;;;;;;20.60;10.20;;;;;;;;;;103578;1289;544989;-69
2024/01/26 16:34:31;;;;;;;19.60;9.40;;;;;;;;;;103413;1302;545019;-69
2024/01/26 16:38:09;;;;;;;17.90;8.90;;;;;;;;;;103551;1289;544869;-70
2024/01/26 16:41:46;;;;;;;14.90;6.70;;;;;;;;;;103596;1289;545941;-71
2024/01/26 16:45:23;;;;;;;18.70;8.40;;;;;;;;;;103415;1295;545340;-69
2024/01/26 16:48:58;;;;;;;22.20;10.20;;;;;;;;;;103553;1288;544806;-70
2024/01/26 16:52:39;;;;;;;18.80;9.30;;;;;;;;;;103562;1291;545778;-69
2024/01/26 16:56:16;;;;;;;19.90;10.10;;;;;;;;;;103601;1289;544788;-70
2024/01/26 16:59:53;;;;;;;32.10;13.70;;;;;;;;;;103470;1290;545606;-69
2024/01/26 17:03:31;;;;;;;26.80;11.00;;;;;;;;;;103512;1292;546049;-69
2024/01/26 17:07:08;;;;;;;23.70;9.90;;;;;;;;;;103706;1292;545022;-70
2024/01/26 17:10:46;;;;;;;19.40;8.20;;;;;;;;;;103627;1289;544786;-70
2024/01/26 17:14:23;;;;;;;24.80;10.30;;;;;;;;;;103472;1305;544989;-70
2024/01/26 17:18:01;;;;;;;21.30;10.50;;;;;;;;;;103554;1290;544798;-70
2024/01/26 17:21:40;;;;;;;31.50;14.90;;;;;;;;;;103602;1289;545682;-69
2024/01/26 17:25:16;;;;;;;27.00;11.00;;;;;;;;;;103715;1295;545569;-70
2024/01/26 17:28:53;;;;;;;23.30;11.30;;;;;;;;;;103603;1289;545423;-69
2024/01/26 17:32:31;;;;;;;22.80;11.60;;;;;;;;;;103481;1291;544863;-70
2024/01/26 17:36:09;;;;;;;28.80;15.50;;;;;;;;;;103598;1289;545489;-69
2024/01/26 17:39:46;;;;;;;19.70;11.50;;;;;;;;;;103990;1289;545934;-69
2024/01/26 17:43:22;;;;;;;12.30;6.50;;;;;;;;;;103394;1292;545048;-69
2024/01/26 17:47:01;;;;;;;11.20;5.60;;;;;;;;;;103437;1289;546154;-69
2024/01/26 17:50:38;;;;;;;11.40;6.20;;;;;;;;;;103594;1289;545816;-69
2024/01/26 17:54:16;;;;;;;12.50;6.80;;;;;;;;;;103356;1294;544872;-68
2024/01/26 17:57:53;;;;;;;12.70;5.80;;;;;;;;;;103507;1289;544921;-69
2024/01/26 18:01:31;;;;;;;14.70;8.00;;;;;;;;;;103323;1291;545048;-68
2024/01/26 18:05:07;;;;;;;15.90;8.30;;;;;;;;;;103682;1289;544933;-68
2024/01/26 18:08:46;;;;;;;9.70;3.70;;;;;;;;;;104531;1279;544928;-69
2024/01/26 18:12:23;;;;;;;9.90;4.00;;;;;;;;;;103612;1290;545400;-69
2024/01/26 18:16:00;;;;;;;10.50;4.60;;;;;;;;;;103757;1288;545416;-67
2024/01/26 18:19:37;;;;;;;8.50;3.30;;;;;;;;;;103533;1290;544987;-69
2024/01/26 18:23:15;;;;;;;7.10;3.10;;;;;;;;;;103484;1293;545030;-67
2024/01/26 18:26:52;;;;;;;9.20;3.10;;;;;;;;;;103584;1289;545770;-69
2024/01/26 18:30:30;;;;;;;30.50;5.80;;;;;;;;;;103498;1289;545693;-69
2024/01/26 18:34:07;;;;;;;8.40;2.80;;;;;;;;;;103581;1288;545019;-72
2024/01/26 18:37:45;;;;;;;6.10;2.20;;;;;;;;;;103371;1290;545032;-69
2024/01/26 18:41:26;;;;;;;6.00;1.90;;;;;;;;;;103545;1295;544953;-70
2024/01/26 18:45:00;;;;;;;6.20;2.00;;;;;;;;;;103612;1292;545883;-70
2024/01/26 18:48:36;;;;;;;5.90;1.60;;;;;;;;;;103483;1292;545009;-70
2024/01/26 18:52:15;;;;;;;13.40;4.10;;;;;;;;;;103371;1291;545011;-70
2024/01/26 18:55:51;;;;;;;11.60;3.90;;;;;;;;;;103579;1294;545429;-70
2024/01/26 18:59:31;;;;;;;8.70;2.80;;;;;;;;;;103317;1291;545511;-69
2024/01/26 19:03:07;;;;;;;9.10;2.90;;;;;;;;;;103491;1292;545427;-69
2024/01/26 19:06:46;;;;;;;10.70;4.30;;;;;;;;;;103514;1289;545070;-70
2024/01/26 19:10:22;;;;;;;6.80;2.10;;;;;;;;;;103569;1289;544981;-69
2024/01/26 19:14:00;;;;;;;8.50;2.70;;;;;;;;;;103550;1291;545291;-70
2024/01/26 19:17:36;;;;;;;10.60;4.40;;;;;;;;;;103545;1292;546196;-69
2024/01/26 19:21:16;;;;;;;14.80;5.00;;;;;;;;;;103487;1289;544960;-69
2024/01/26 19:24:51;;;;;;;10.40;3.00;;;;;;;;;;103537;1290;545980;-70
2024/01/26 19:28:29;;;;;;;10.70;3.00;;;;;;;;;;103402;1292;545955;-70
2024/01/26 19:32:06;;;;;;;8.70;3.00;;;;;;;;;;103499;1292;545088;-69
2024/01/26 19:35:45;;;;;;;12.70;5.70;;;;;;;;;;103318;1291;545319;-68
2024/01/26 19:39:23;;;;;;;8.90;2.60;;;;;;;;;;103475;1289;544994;-69
2024/01/26 19:43:00;;;;;;;5.70;1.50;;;;;;;;;;103433;1290;544831;-72
2024/01/26 19:46:36;;;;;;;8.10;2.40;;;;;;;;;;103792;1292;544885;-71
2024/01/26 19:50:14;;;;;;;11.00;3.60;;;;;;;;;;103683;1289;545816;-71
2024/01/26 19:53:50;;;;;;;6.70;2.20;;;;;;;;;;103539;1288;545013;-72
2024/01/26 19:57:29;;;;;;;9.30;3.60;;;;;;;;;;103700;1289;546363;-71
2024/01/26 20:01:06;;;;;;;6.00;1.60;;;;;;;;;;103482;1295;544923;-70
2024/01/26 20:04:40;;;;;;;8.50;2.60;;;;;;;;;;103787;1291;544772;-71
2024/01/26 20:08:23;;;;;;;7.40;2.10;;;;;;;;;;103555;1295;545599;-70
2024/01/26 20:11:58;;;;;;;7.60;3.00;;;;;;;;;;103424;1291;545764;-71
2024/01/26 20:15:36;;;;;;;6.90;2.20;;;;;;;;;;103608;1291;546224;-70
2024/01/26 20:19:14;;;;;;;7.10;2.20;;;;;;;;;;103633;1289;544871;-72
2024/01/26 20:22:51;;;;;;;5.40;1.80;;;;;;;;;;103715;1290;545539;-71
2024/01/26 20:26:29;;;;;;;4.30;1.30;;;;;;;;;;103701;1289;545535;-72
2024/01/26 20:30:02;;;;;;;7.20;2.30;;;;;;;;;;103714;1289;544949;-71
2024/01/26 20:33:44;;;;;;;5.40;2.00;;;;;;;;;;103692;1292;544961;-72
2024/01/26 20:37:21;;;;;;;4.50;1.30;;;;;;;;;;103599;1292;544767;-71
2024/01/26 20:40:58;;;;;;;6.40;1.70;;;;;;;;;;103579;1291;545006;-72
2024/01/26 20:44:38;;;;;;;7.40;2.00;;;;;;;;;;103604;1291;545032;-71